createdAt,value
2022-10-01T00:02:08.891Z,97951.21
2022-10-01T00:04:37.975Z,97942.86
2022-10-01T00:07:09.792Z,97939.80
2022-10-01T00:09:38.463Z,97940.26
2022-10-01T00:12:08.481Z,97939.41
2022-10-01T00:14:39.355Z,97938.88
2022-10-01T00:17:07.481Z,97938.27
2022-10-01T00:19:35.617Z,97932.36
2022-10-01T00:22:03.898Z,97931.67
2022-10-01T00:24:32.324Z,97927.68
2022-10-01T00:27:00.605Z,97930.36
2022-10-01T00:29:28.752Z,97934.33
2022-10-01T00:31:57.414Z,97932.80
2022-10-01T00:34:27.084Z,97933.88
2022-10-01T00:36:55.360Z,97936.24
2022-10-01T00:39:24.021Z,97934.10
2022-10-01T00:41:52.584Z,97929.41
2022-10-01T00:44:32.343Z,97927.27
2022-10-01T00:47:16.069Z,97929.56
2022-10-01T00:49:47.385Z,97928.64
2022-10-01T00:52:22.205Z,97927.72
2022-10-01T00:54:57.819Z,97930.32
2022-10-01T00:57:27.728Z,97926.31
2022-10-01T01:00:01.498Z,97923.02
2022-10-01T01:02:29.573Z,97913.69
2022-10-01T01:04:59.199Z,97912.69
2022-10-01T01:07:29.943Z,97906.85
2022-10-01T01:09:58.947Z,97903.09
2022-10-01T01:12:57.384Z,97903.85
2022-10-01T01:15:41.843Z,97894.27
2022-10-01T01:18:30.387Z,97892.27
2022-10-01T01:21:13.919Z,97894.78
2022-10-01T01:23:57.359Z,97893.24
2022-10-01T01:26:35.198Z,97894.91
2022-10-01T01:29:13.804Z,97898.14
2022-10-01T01:31:48.837Z,97893.38
2022-10-01T01:34:24.717Z,97894.37
2022-10-01T01:36:59.405Z,97897.45
2022-10-01T01:39:32.314Z,97902.18
2022-10-01T01:42:06.708Z,97906.00
2022-10-01T01:44:40.382Z,97902.86
2022-10-01T01:47:10.800Z,97899.48
2022-10-01T01:49:40.230Z,97897.65
2022-10-01T01:52:15.602Z,97905.69
2022-10-01T01:54:50.099Z,97901.92
2022-10-01T01:57:20.203Z,97898.48
2022-10-01T01:59:48.384Z,97900.68
2022-10-01T02:02:27.190Z,97896.83
2022-10-01T02:05:02.377Z,97894.90
2022-10-01T02:07:39.908Z,97894.58
2022-10-01T02:10:17.742Z,97894.86
2022-10-01T02:13:15.210Z,97897.54
2022-10-01T02:16:19.291Z,97897.75
2022-10-01T02:19:05.634Z,97897.05
2022-10-01T02:21:42.125Z,97891.38
2022-10-01T02:24:27.777Z,97894.64
2022-10-01T02:26:58.896Z,97898.07
2022-10-01T02:29:28.987Z,97898.90
2022-10-01T02:31:57.711Z,97900.19
2022-10-01T02:34:30.488Z,97899.33
2022-10-01T02:37:00.881Z,97900.00
2022-10-01T02:39:33.262Z,97905.36
2022-10-01T02:42:04.288Z,97907.42
2022-10-01T02:44:38.840Z,97909.03
2022-10-01T02:47:36.996Z,97912.93
2022-10-01T02:50:06.912Z,97915.60
2022-10-01T02:52:50.403Z,97914.73
2022-10-01T02:55:26.271Z,97913.58
2022-10-01T02:57:55.444Z,97914.96
2022-10-01T03:00:24.164Z,97912.29
2022-10-01T03:02:53.040Z,97904.02
2022-10-01T03:05:21.668Z,97896.45
2022-10-01T03:07:50.403Z,97896.91
2022-10-01T03:10:19.347Z,97896.20
2022-10-01T03:12:47.471Z,97892.66
2022-10-01T03:15:19.455Z,97898.75
2022-10-01T03:17:52.219Z,97898.80
2022-10-01T03:20:20.585Z,97896.58
2022-10-01T03:22:48.798Z,97896.38
2022-10-01T03:25:17.612Z,97896.13
2022-10-01T03:27:46.715Z,97894.20
2022-10-01T03:30:14.991Z,97900.75
2022-10-01T03:32:43.003Z,97904.33
2022-10-01T03:35:11.180Z,97901.79
2022-10-01T03:37:39.112Z,97901.48
2022-10-01T03:40:08.040Z,97898.27
2022-10-01T03:42:36.169Z,97899.33
2022-10-01T03:45:04.720Z,97899.08
2022-10-01T03:47:32.900Z,97900.69
2022-10-01T03:50:00.891Z,97895.85
2022-10-01T03:52:28.899Z,97896.38
2022-10-01T03:54:56.865Z,97896.23
2022-10-01T03:57:24.924Z,97900.96
2022-10-01T03:59:53.063Z,97901.51
2022-10-01T04:02:22.169Z,97907.46
2022-10-01T04:04:51.247Z,97905.33
2022-10-01T04:07:19.630Z,97902.79
2022-10-01T04:09:48.048Z,97900.95
2022-10-01T04:12:16.306Z,97903.29
2022-10-01T04:14:44.622Z,97906.48
2022-10-01T04:17:13.101Z,97904.10
2022-10-01T04:19:41.108Z,97902.25
2022-10-01T04:22:09.208Z,97906.13
2022-10-01T04:24:37.835Z,97907.58
2022-10-01T04:27:05.796Z,97906.05
2022-10-01T04:29:38.005Z,97908.54
2022-10-01T04:32:08.158Z,97915.49
2022-10-01T04:34:54.405Z,97914.11
2022-10-01T04:37:23.633Z,97916.17
2022-10-01T04:39:51.642Z,97920.36
2022-10-01T04:42:20.863Z,97922.89
2022-10-01T04:44:49.035Z,97925.73
2022-10-01T04:47:17.126Z,97922.52
2022-10-01T04:49:45.104Z,97923.06
2022-10-01T04:52:13.122Z,97922.23
2022-10-01T04:54:41.341Z,97926.92
2022-10-01T04:57:09.915Z,97928.25
2022-10-01T04:59:38.060Z,97934.70
2022-10-01T05:02:06.163Z,97940.82
2022-10-01T05:04:34.499Z,97947.81
2022-10-01T05:07:02.367Z,97951.00
2022-10-01T05:09:30.407Z,97954.41
2022-10-01T05:11:58.734Z,97958.35
2022-10-01T05:14:27.241Z,97961.13
2022-10-01T05:16:55.400Z,97957.95
2022-10-01T05:19:27.898Z,97953.39
2022-10-01T05:21:56.923Z,97958.98
2022-10-01T05:24:25.067Z,97958.92
2022-10-01T05:26:55.886Z,97963.63
2022-10-01T05:29:23.907Z,97959.90
2022-10-01T05:31:51.995Z,97959.92
2022-10-01T05:34:20.068Z,97964.09
2022-10-01T05:36:48.396Z,97969.61
2022-10-01T05:39:16.351Z,97966.66
2022-10-01T05:41:44.477Z,97963.55
2022-10-01T05:44:12.501Z,97966.34
2022-10-01T05:46:40.779Z,97964.70
2022-10-01T05:49:08.730Z,97960.75
2022-10-01T05:51:37.191Z,97961.31
2022-10-01T05:54:06.000Z,97960.65
2022-10-01T05:56:34.017Z,97957.53
2022-10-01T05:59:06.839Z,97957.64
2022-10-01T06:01:34.830Z,97956.77
2022-10-01T06:04:03.408Z,97957.11
2022-10-01T06:06:32.325Z,97951.80
2022-10-01T06:09:00.612Z,97948.24
2022-10-01T06:11:28.801Z,97948.05
2022-10-01T06:13:56.728Z,97951.70
2022-10-01T06:16:24.902Z,97950.94
2022-10-01T06:18:57.513Z,97948.33
2022-10-01T06:21:26.308Z,97946.30
2022-10-01T06:23:55.624Z,97944.83
2022-10-01T06:26:24.485Z,97945.38
2022-10-01T06:28:52.800Z,97941.21
2022-10-01T06:31:21.610Z,97935.06
2022-10-01T06:33:49.585Z,97929.45
2022-10-01T06:36:26.645Z,97938.38
2022-10-01T06:38:54.602Z,97938.02
2022-10-01T06:41:22.826Z,97936.58
2022-10-01T06:43:50.946Z,97934.46
2022-10-01T06:46:18.928Z,97927.69
2022-10-01T06:48:47.053Z,97921.19
2022-10-01T06:51:15.158Z,97916.15
2022-10-01T06:53:43.596Z,97915.58
2022-10-01T06:56:11.576Z,97915.01
2022-10-01T06:58:42.633Z,97913.05
2022-10-01T07:01:11.191Z,97907.39
2022-10-01T07:03:39.266Z,97903.46
2022-10-01T07:06:09.124Z,97897.23
2022-10-01T07:08:37.124Z,97891.04
2022-10-01T07:11:05.255Z,97884.23
2022-10-01T07:13:33.299Z,97878.05
2022-10-01T07:16:04.660Z,97875.66
2022-10-01T07:18:32.959Z,97875.39
2022-10-01T07:21:02.055Z,97878.01
2022-10-01T07:23:30.066Z,97881.14
2022-10-01T07:25:59.113Z,97884.33
2022-10-01T07:28:28.401Z,97889.98
2022-10-01T07:31:02.964Z,97893.17
2022-10-01T07:33:31.074Z,97887.47
2022-10-01T07:36:06.415Z,97884.50
2022-10-01T07:38:35.121Z,97887.96
2022-10-01T07:41:03.668Z,97889.27
2022-10-01T07:43:34.786Z,97881.11
2022-10-01T07:46:03.709Z,97876.02
2022-10-01T07:48:31.886Z,97872.56
2022-10-01T07:50:59.827Z,97869.19
2022-10-01T07:53:28.214Z,97866.96
2022-10-01T07:55:56.917Z,97865.30
2022-10-01T07:58:24.878Z,97870.48
2022-10-01T08:00:58.521Z,97872.27
2022-10-01T08:03:27.257Z,97869.67
2022-10-01T08:05:55.262Z,97869.52
2022-10-01T08:08:23.437Z,97867.45
2022-10-01T08:10:51.451Z,97865.40
2022-10-01T08:13:20.534Z,97862.52
2022-10-01T08:15:54.694Z,97855.77
2022-10-01T08:18:23.394Z,97849.55
2022-10-01T08:20:52.050Z,97844.64
2022-10-01T08:23:20.190Z,97837.98
2022-10-01T08:25:48.567Z,97834.06
2022-10-01T08:28:16.713Z,97828.09
2022-10-01T08:30:44.779Z,97820.51
2022-10-01T08:33:13.552Z,97821.17
2022-10-01T08:35:43.658Z,97826.02
2022-10-01T08:38:13.189Z,97827.77
2022-10-01T08:40:49.962Z,97828.66
2022-10-01T08:43:39.307Z,97825.61
2022-10-01T08:46:30.784Z,97821.92
2022-10-01T08:49:13.317Z,97817.31
2022-10-01T08:52:00.187Z,97814.09
2022-10-01T08:54:39.924Z,97813.15
2022-10-01T08:57:20.438Z,97817.39
2022-10-01T08:59:49.984Z,97810.02
2022-10-01T09:02:24.096Z,97806.16
2022-10-01T09:05:01.514Z,97798.55
2022-10-01T09:07:47.963Z,97793.98
2022-10-01T09:10:25.704Z,97791.30
2022-10-01T09:13:27.868Z,97788.31
2022-10-01T09:16:15.551Z,97788.17
2022-10-01T09:19:06.467Z,97787.42
2022-10-01T09:21:49.730Z,97788.36
2022-10-01T09:24:50.447Z,97785.86
2022-10-01T09:27:23.526Z,97779.37
2022-10-01T09:29:56.509Z,97779.63
2022-10-01T09:32:34.659Z,97777.14
2022-10-01T09:35:24.309Z,97768.91
2022-10-01T09:37:58.161Z,97762.17
2022-10-01T09:40:46.742Z,97758.23
2022-10-01T09:43:15.358Z,97756.73
2022-10-01T09:45:43.385Z,97755.46
2022-10-01T09:48:22.335Z,97752.56
2022-10-01T09:50:58.292Z,97745.95
2022-10-01T09:53:35.007Z,97747.69
2022-10-01T09:56:14.892Z,97748.02
2022-10-01T09:58:47.863Z,97751.77
2022-10-01T10:01:26.636Z,97752.00
2022-10-01T10:03:56.787Z,97752.27
2022-10-01T10:06:28.575Z,97753.16
2022-10-01T10:08:59.348Z,97751.73
2022-10-01T10:11:31.159Z,97748.80
2022-10-01T10:14:03.662Z,97751.02
2022-10-01T10:16:35.560Z,97751.80
2022-10-01T10:19:10.355Z,97755.39
2022-10-01T10:21:38.438Z,97748.83
2022-10-01T10:24:22.716Z,97751.91
2022-10-01T10:26:59.502Z,97751.24
2022-10-01T10:29:36.524Z,97741.98
2022-10-01T10:32:14.051Z,97734.45
2022-10-01T10:34:47.387Z,97727.78
2022-10-01T10:37:28.344Z,97721.72
2022-10-01T10:39:57.476Z,97722.91
2022-10-01T10:42:25.968Z,97721.20
2022-10-01T10:44:57.214Z,97710.58
2022-10-01T10:47:28.660Z,97710.33
2022-10-01T10:50:00.905Z,97708.16
2022-10-01T10:52:37.575Z,97705.72
2022-10-01T10:55:25.413Z,97698.35
2022-10-01T10:57:57.540Z,97694.52
2022-10-01T11:00:26.746Z,97688.41
2022-10-01T11:02:57.460Z,97677.73
2022-10-01T11:05:30.099Z,97673.34
2022-10-01T11:08:06.775Z,97660.65
2022-10-01T11:10:47.865Z,97647.02
2022-10-01T11:13:18.770Z,97639.97
2022-10-01T11:16:07.655Z,97632.08
2022-10-01T11:18:56.099Z,97630.05
2022-10-01T11:21:48.074Z,97618.39
2022-10-01T11:24:37.486Z,97607.05
2022-10-01T11:27:15.641Z,97605.23
2022-10-01T11:30:13.232Z,97599.42
2022-10-01T11:32:50.286Z,97594.29
2022-10-01T11:35:25.794Z,97593.65
2022-10-01T11:38:06.834Z,97593.69
2022-10-01T11:40:51.332Z,97586.55
2022-10-01T11:43:35.270Z,97578.11
2022-10-01T11:46:33.935Z,97577.22
2022-10-01T11:49:34.709Z,97575.58
2022-10-01T11:52:22.824Z,97570.10
2022-10-01T11:55:27.546Z,97577.92
2022-10-01T11:58:47.714Z,97572.83
2022-10-01T12:01:39.377Z,97568.26
2022-10-01T12:04:34.888Z,97566.74
2022-10-01T12:07:10.979Z,97558.32
2022-10-01T12:09:58.504Z,97546.16
2022-10-01T12:12:40.770Z,97535.74
2022-10-01T12:15:21.023Z,97526.86
2022-10-01T12:17:55.937Z,97518.61
2022-10-01T12:20:44.718Z,97511.46
2022-10-01T12:23:18.697Z,97500.34
2022-10-01T12:26:17.921Z,97502.34
2022-10-01T12:28:55.547Z,97497.15
2022-10-01T12:31:50.442Z,97486.10
2022-10-01T12:34:39.401Z,97483.81
2022-10-01T12:37:21.830Z,97486.98
2022-10-01T12:39:58.919Z,97490.77
2022-10-01T12:42:54.297Z,97489.26
2022-10-01T12:45:43.906Z,97491.52
2022-10-01T12:48:33.764Z,97481.19
2022-10-01T12:51:39.928Z,97475.04
2022-10-01T12:54:21.283Z,97479.23
2022-10-01T12:57:37.145Z,97475.29
2022-10-01T13:00:13.639Z,97473.00
2022-10-01T13:02:56.410Z,97470.34
2022-10-01T13:05:47.585Z,97467.94
2022-10-01T13:08:18.575Z,97464.88
2022-10-01T13:10:52.338Z,97463.05
2022-10-01T13:13:33.040Z,97454.96
2022-10-01T13:16:37.615Z,97449.02
2022-10-01T13:19:32.556Z,97452.15
2022-10-01T13:22:22.147Z,97448.95
2022-10-01T13:25:00.994Z,97443.15
2022-10-01T13:27:35.141Z,97437.23
2022-10-01T13:30:27.968Z,97437.66
2022-10-01T13:33:01.062Z,97434.52
2022-10-01T13:35:39.580Z,97427.63
2022-10-01T13:38:15.144Z,97413.50
2022-10-01T13:40:43.909Z,97412.70
2022-10-01T13:43:23.321Z,97411.95
2022-10-01T13:45:54.410Z,97409.56
2022-10-01T13:48:34.701Z,97416.25
2022-10-01T13:51:06.944Z,97413.30
2022-10-01T13:53:41.003Z,97416.67
2022-10-01T13:56:15.539Z,97410.66
2022-10-01T13:58:45.762Z,97412.80
2022-10-01T14:01:21.295Z,97412.47
2022-10-01T14:03:57.635Z,97403.94
2022-10-01T14:06:33.606Z,97397.16
2022-10-01T14:09:13.829Z,97389.80
2022-10-01T14:12:04.420Z,97391.73
2022-10-01T14:14:54.986Z,97395.34
2022-10-01T14:17:30.928Z,97393.08
2022-10-01T14:20:00.838Z,97391.89
2022-10-01T14:22:54.139Z,97391.39
2022-10-01T14:25:38.345Z,97386.92
2022-10-01T14:28:24.554Z,97385.30
2022-10-01T14:30:52.688Z,97385.41
2022-10-01T14:33:44.813Z,97378.27
2022-10-01T14:36:28.697Z,97374.80
2022-10-01T14:39:17.938Z,97364.31
2022-10-01T14:41:48.224Z,97365.54
2022-10-01T14:44:22.159Z,97361.41
2022-10-01T14:46:51.727Z,97355.71
2022-10-01T14:49:33.242Z,97350.24
2022-10-01T14:52:04.345Z,97345.46
2022-10-01T14:54:43.884Z,97337.85
2022-10-01T14:57:17.944Z,97330.76
2022-10-01T14:59:48.664Z,97319.56
2022-10-01T15:02:22.577Z,97311.06
2022-10-01T15:04:53.348Z,97301.00
2022-10-01T15:07:21.733Z,97295.06
2022-10-01T15:09:51.353Z,97289.07
2022-10-01T15:12:22.978Z,97290.34
2022-10-01T15:14:54.516Z,97284.27
2022-10-01T15:17:27.087Z,97279.22
2022-10-01T15:19:56.753Z,97273.33
2022-10-01T15:22:30.193Z,97270.55
2022-10-01T15:25:01.117Z,97267.77
2022-10-01T15:27:29.458Z,97257.20
2022-10-01T15:30:01.269Z,97249.16
2022-10-01T15:32:29.646Z,97241.23
2022-10-01T15:35:01.868Z,97233.16
2022-10-01T15:37:31.754Z,97231.95
2022-10-01T15:40:01.248Z,97228.73
2022-10-01T15:42:34.888Z,97234.45
2022-10-01T15:45:09.026Z,97240.96
2022-10-01T15:47:38.994Z,97240.16
2022-10-01T15:50:10.174Z,97238.52
2022-10-01T15:52:51.017Z,97233.46
2022-10-01T15:55:29.168Z,97230.13
2022-10-01T15:58:20.905Z,97228.40
2022-10-01T16:00:56.791Z,97225.98
2022-10-01T16:03:29.312Z,97225.23
2022-10-01T16:06:01.696Z,97227.44
2022-10-01T16:08:34.586Z,97227.10
2022-10-01T16:11:17.308Z,97231.48
2022-10-01T16:13:49.138Z,97234.39
2022-10-01T16:16:35.338Z,97240.02
2022-10-01T16:19:22.247Z,97251.64
2022-10-01T16:22:29.282Z,97262.21
2022-10-01T16:25:03.685Z,97260.92
2022-10-01T16:27:45.503Z,97261.74
2022-10-01T16:30:21.351Z,97265.52
2022-10-01T16:32:49.422Z,97263.02
2022-10-01T16:35:27.661Z,97266.76
2022-10-01T16:37:58.166Z,97281.49
2022-10-01T16:40:32.540Z,97289.79
2022-10-01T16:43:01.205Z,97290.37
2022-10-01T16:45:37.716Z,97290.59
2022-10-01T16:48:14.502Z,97293.71
2022-10-01T16:50:46.641Z,97294.19
2022-10-01T16:53:17.428Z,97308.00
2022-10-01T16:55:46.953Z,97314.77
2022-10-01T16:58:15.745Z,97313.13
2022-10-01T17:00:44.160Z,97308.05
2022-10-01T17:03:17.684Z,97311.40
2022-10-01T17:05:46.562Z,97309.90
2022-10-01T17:08:15.632Z,97311.73
2022-10-01T17:10:46.517Z,97315.46
2022-10-01T17:13:15.672Z,97323.59
2022-10-01T17:15:44.043Z,97319.86
2022-10-01T17:18:14.009Z,97321.20
2022-10-01T17:20:42.472Z,97321.67
2022-10-01T17:23:13.856Z,97324.02
2022-10-01T17:25:49.687Z,97325.74
2022-10-01T17:28:20.777Z,97334.47
2022-10-01T17:30:49.899Z,97338.27
2022-10-01T17:33:19.477Z,97341.19
2022-10-01T17:35:52.040Z,97349.04
2022-10-01T17:38:21.239Z,97356.03
2022-10-01T17:40:55.454Z,97357.30
2022-10-01T17:43:25.327Z,97359.30
2022-10-01T17:45:59.967Z,97359.08
2022-10-01T17:48:31.136Z,97361.44
2022-10-01T17:51:07.000Z,97365.89
2022-10-01T17:53:42.091Z,97377.81
2022-10-01T17:56:17.749Z,97385.30
2022-10-01T17:58:47.144Z,97385.95
2022-10-01T18:01:20.107Z,97390.88
2022-10-01T18:03:54.070Z,97389.00
2022-10-01T18:06:23.490Z,97384.36
2022-10-01T18:08:55.494Z,97390.67
2022-10-01T18:11:27.971Z,97400.86
2022-10-01T18:13:56.748Z,97398.98
2022-10-01T18:16:26.739Z,97393.42
2022-10-01T18:21:48.472Z,97392.77
2022-10-01T18:24:17.263Z,97392.59
2022-10-01T18:26:46.120Z,97387.30
2022-10-01T18:29:21.949Z,97383.53
2022-10-01T18:32:07.585Z,97388.21
2022-10-01T18:34:55.106Z,97389.55
2022-10-01T18:37:40.122Z,97377.45
2022-10-01T18:40:42.156Z,97375.33
2022-10-01T18:43:17.746Z,97365.46
2022-10-01T18:45:54.885Z,97350.52
2022-10-01T18:48:55.722Z,97345.70
2022-10-01T18:51:54.459Z,97339.01
2022-10-01T18:54:50.654Z,97328.92
2022-10-01T18:57:33.107Z,97318.66
2022-10-01T19:00:08.559Z,97302.18
2022-10-01T19:03:18.556Z,97283.52
2022-10-01T19:05:56.784Z,97268.02
2022-10-01T19:08:54.338Z,97254.85
2022-10-01T19:12:00.647Z,97247.83
2022-10-01T19:14:45.002Z,97249.46
2022-10-01T19:17:26.558Z,97243.55
2022-10-01T19:20:18.909Z,97243.63
2022-10-01T19:23:11.285Z,97252.05
2022-10-01T19:25:58.009Z,97255.77
2022-10-01T19:28:49.448Z,97245.98
2022-10-01T19:31:50.939Z,97230.51
2022-10-01T19:34:32.020Z,97219.64
2022-10-01T19:37:11.634Z,97230.66
2022-10-01T19:39:46.403Z,97227.48
2022-10-01T19:42:23.676Z,97222.33
2022-10-01T19:45:07.633Z,97211.02
2022-10-01T19:48:03.507Z,97197.23
2022-10-01T19:50:43.392Z,97192.38
2022-10-01T19:53:30.015Z,97200.86
2022-10-01T19:56:04.527Z,97213.38
2022-10-01T19:58:34.565Z,97224.02
2022-10-01T20:01:04.083Z,97226.44
2022-10-01T20:03:45.777Z,97221.98
2022-10-01T20:06:40.251Z,97222.69
2022-10-01T20:09:14.581Z,97227.33
2022-10-01T20:11:46.313Z,97230.05
2022-10-01T20:14:35.310Z,97233.45
2022-10-01T20:17:24.745Z,97244.20
2022-10-01T20:20:52.120Z,97244.58
2022-10-01T20:23:58.215Z,97246.94
2022-10-01T20:26:30.508Z,97247.45
2022-10-01T20:29:20.976Z,97242.16
2022-10-01T20:32:06.911Z,97235.32
2022-10-01T20:34:56.346Z,97241.66
2022-10-01T20:37:42.689Z,97255.33
2022-10-01T20:40:13.550Z,97264.43
2022-10-01T20:42:47.747Z,97266.09
2022-10-01T20:45:36.816Z,97263.70
2022-10-01T20:48:17.176Z,97265.89
2022-10-01T20:50:50.576Z,97266.19
2022-10-01T20:53:53.569Z,97263.96
2022-10-01T20:56:47.659Z,97260.11
2022-10-01T20:59:40.801Z,97259.63
2022-10-01T21:02:28.934Z,97264.30
2022-10-01T21:05:19.245Z,97272.30
2022-10-01T21:08:02.212Z,97266.84
2022-10-01T21:10:35.700Z,97259.91
2022-10-01T21:13:36.905Z,97261.45
2022-10-01T21:16:29.595Z,97258.61
2022-10-01T21:19:30.920Z,97255.53
2022-10-01T21:22:19.220Z,97244.86
2022-10-01T21:25:05.458Z,97242.11
2022-10-01T21:28:12.332Z,97238.45
2022-10-01T21:31:06.724Z,97235.23
2022-10-01T21:34:13.330Z,97238.92
2022-10-01T21:37:26.119Z,97243.34
2022-10-01T21:40:17.148Z,97248.64
2022-10-01T21:43:22.163Z,97247.16
2022-10-01T21:46:20.630Z,97242.89
2022-10-01T21:49:24.053Z,97246.23
2022-10-01T21:51:58.576Z,97249.38
2022-10-01T21:54:58.651Z,97243.98
2022-10-01T21:57:56.492Z,97236.77
2022-10-01T22:00:28.907Z,97237.06
2022-10-01T22:03:35.070Z,97230.41
2022-10-01T22:06:09.911Z,97228.61
2022-10-01T22:09:05.455Z,97231.80
2022-10-01T22:11:39.410Z,97233.77
2022-10-01T22:14:27.435Z,97236.67
2022-10-01T22:16:58.736Z,97228.30
2022-10-01T22:19:33.101Z,97212.70
2022-10-01T22:22:38.277Z,97208.82
2022-10-01T22:25:08.040Z,97211.63
2022-10-01T22:27:48.798Z,97213.30
2022-10-01T22:30:23.207Z,97214.75
2022-10-01T22:33:16.572Z,97211.47
2022-10-01T22:36:02.630Z,97203.73
2022-10-01T22:38:42.563Z,97206.63
2022-10-01T22:41:47.545Z,97205.14
2022-10-01T22:44:23.136Z,97202.18
2022-10-01T22:47:09.399Z,97198.67
2022-10-01T22:49:40.627Z,97195.63
2022-10-01T22:52:20.508Z,97195.96
2022-10-01T22:54:48.377Z,97197.61
2022-10-01T22:57:41.516Z,97195.61
2022-10-01T23:00:14.732Z,97207.48
2022-10-01T23:02:48.835Z,97216.35
2022-10-01T23:05:52.380Z,97214.35
2022-10-01T23:08:46.094Z,97214.48
2022-10-01T23:11:20.259Z,97211.15
2022-10-01T23:14:10.291Z,97206.67
2022-10-01T23:16:54.384Z,97193.80
2022-10-01T23:19:32.608Z,97187.63
2022-10-01T23:22:19.032Z,97188.02
2022-10-01T23:24:50.000Z,97199.77
2022-10-01T23:27:24.097Z,97198.69
2022-10-01T23:30:19.641Z,97197.59
2022-10-01T23:33:08.691Z,97202.50
2022-10-01T23:35:43.769Z,97204.63
2022-10-01T23:38:33.524Z,97209.00
2022-10-01T23:41:11.754Z,97212.60
2022-10-01T23:43:46.879Z,97218.89
2022-10-01T23:46:27.275Z,97221.05
2022-10-01T23:49:07.767Z,97222.92
2022-10-01T23:52:03.655Z,97231.31
2022-10-01T23:54:44.655Z,97235.04
2022-10-01T23:57:18.664Z,97238.54
